Lakin, KS (67860)

10:24 PM CDT on April 17, 2015 (GMT -0500)
Yost Farms | | Change Station
CLOSE
Current Station
Personal Weather Station
Location: Lakin, KS
Elevation: 2982 ft
Nearby Weather Stations

Elev 2982 ft 37.89 °N, 101.12 °W | Updated 16 seconds ago

Mostly Cloudy
Mostly Cloudy
54.7 °F
Feels Like 54.7 °F
N
4.0
Wind Variable Wind from West
Gusts 4.0 mph

Today
High -- | Low -- °F
--% Chance of Precip.
Yesterday
High -- | Low -- °F
Precip. -- in
7:07 AM 8:22 PM
Waning Crescent, 1% visible
Pressure 29.88 in
Visibility 10.0 miles
Clouds Clear
Dew Point 47 °F
Humidity 76%
Rainfall 0.14 in
Snow Depth Not available.
UV 0 out of 12
Pollen 7.00 out of 12
Air Quality Not available.
Flu Activity Sporadic
METAR KGCK 180254Z 11011KT 10SM CLR 13/12 A2991 RMK AO2 LTG DSNT ALQDS RAB03E24 TSB0159E35 SLP118 TS OHD P0011 60011 T01330117 53013

More Conditions Fewer Conditions

Pressure 29.88 in
Visibility 10.0 miles
Clouds Clear
Dew Point 47 °F
Humidity 76%
Rainfall 0.14 in
Snow Depth Not available.
UV 0 out of 12
Pollen 7.00 out of 12
Air Quality Not available.
Flu Activity Sporadic
METAR KGCK 180254Z 11011KT 10SM CLR 13/12 A2991 RMK AO2 LTG DSNT ALQDS RAB03E24 TSB0159E35 SLP118 TS OHD P0011 60011 T01330117 53013

More Conditions Fewer Conditions

10-Day Weather Forecast

Almanac

Astronomy

Apr. 17, 2015 Rise Set
Actual Time
Civil Twilight
Nautical Twilight
Astronomical Twilight
Moon
Length of Visible Light
Length of Day
Tomorrow will be .
, % of the Moon is Illuminated

Today's Extremes

State Highs State Lows

Community

WunderPhotos

Upload Photos

1,814,315 photos uploaded!

WunderBlogs® & News

Nearby

Air Quality

  Air Quality AQ Index Pollutant
Not available.

Snow Depth

Station Depth Elevation

Earthquake Activity

City Distance Mag. Time & Date
Minimum magnitude displayed is 2.5.

Coastal Water Temperatures

Place Temperature

Stations

Nearby Weather Stations

Station Location Temp. Windchill Dew Point Humidity Wind Precip. Elev Updated Type